createdAt,value
2023-04-18T00:00:49.078Z,101280.06
2023-04-18T00:03:17.371Z,101276.99
2023-04-18T00:05:48.224Z,101275.92
2023-04-18T00:08:16.089Z,101275.06
2023-04-18T00:10:43.696Z,101274.72
2023-04-18T00:13:12.218Z,101276.28
2023-04-18T00:15:41.839Z,101274.61
2023-04-18T00:18:10.536Z,101272.74
2023-04-18T00:20:39.411Z,101275.11
2023-04-18T00:23:07.872Z,101276.48
2023-04-18T00:25:35.643Z,101278.66
2023-04-18T00:28:03.269Z,101278.63
2023-04-18T00:30:31.408Z,101277.86
2023-04-18T00:32:59.307Z,101279.08
2023-04-18T00:35:27.116Z,101276.35
2023-04-18T00:37:54.724Z,101274.27
2023-04-18T00:40:22.932Z,101275.26
2023-04-18T00:42:51.079Z,101271.63
2023-04-18T00:45:18.848Z,101270.56
2023-04-18T00:47:46.508Z,101273.96
2023-04-18T00:50:15.597Z,101269.83
2023-04-18T00:52:44.790Z,101270.51
2023-04-18T00:55:12.618Z,101271.51
2023-04-18T00:57:40.769Z,101269.30
2023-04-18T01:00:10.069Z,101272.19
2023-04-18T01:02:39.734Z,101270.12
2023-04-18T01:05:08.790Z,101270.96
2023-04-18T01:07:41.792Z,101273.85
2023-04-18T01:10:10.646Z,101270.64
2023-04-18T01:12:39.890Z,101273.02
2023-04-18T01:15:08.457Z,101274.85
2023-04-18T01:17:36.289Z,101274.11
2023-04-18T01:20:06.371Z,101276.83
2023-04-18T01:22:34.225Z,101274.91
2023-04-18T01:25:07.093Z,101275.55
2023-04-18T01:27:34.851Z,101273.86
2023-04-18T01:30:02.660Z,101274.36
2023-04-18T01:32:30.387Z,101270.96
2023-04-18T01:34:58.121Z,101269.42
2023-04-18T01:37:25.912Z,101268.89
2023-04-18T01:39:53.959Z,101272.80
2023-04-18T01:42:21.634Z,101271.97
2023-04-18T01:44:49.280Z,101272.29
2023-04-18T01:47:16.935Z,101270.63
2023-04-18T01:49:48.222Z,101269.62
2023-04-18T01:52:16.170Z,101270.61
2023-04-18T01:54:43.893Z,101268.79
2023-04-18T01:57:11.506Z,101271.85
2023-04-18T01:59:39.192Z,101269.29
2023-04-18T02:02:06.991Z,101270.09
2023-04-18T02:04:34.875Z,101268.89
2023-04-18T02:07:02.578Z,101267.70
2023-04-18T02:09:30.274Z,101268.22
2023-04-18T02:11:59.709Z,101264.30
2023-04-18T02:14:30.747Z,101265.14
2023-04-18T02:16:59.600Z,101260.56
2023-04-18T02:19:28.429Z,101261.77
2023-04-18T02:21:56.314Z,101259.37
2023-04-18T02:24:24.360Z,101258.19
2023-04-18T02:26:52.107Z,101258.23
2023-04-18T02:29:19.832Z,101260.97
2023-04-18T02:31:47.625Z,101264.38
2023-04-18T02:34:15.501Z,101261.99
2023-04-18T02:36:43.264Z,101261.81
2023-04-18T02:39:10.930Z,101264.71
2023-04-18T02:41:39.634Z,101262.70
2023-04-18T02:44:08.976Z,101259.42
2023-04-18T02:46:36.691Z,101260.14
2023-04-18T02:49:04.658Z,101256.73
2023-04-18T02:51:32.308Z,101259.13
2023-04-18T02:53:59.956Z,101262.48
2023-04-18T02:56:27.639Z,101263.33
2023-04-18T02:58:55.265Z,101264.19
2023-04-18T03:01:22.958Z,101260.92
2023-04-18T03:03:50.906Z,101264.30
2023-04-18T03:06:18.610Z,101265.14
2023-04-18T03:08:46.351Z,101263.09
2023-04-18T03:11:14.002Z,101265.14
2023-04-18T03:13:41.784Z,101261.88
2023-04-18T03:16:09.591Z,101265.42
2023-04-18T03:18:37.502Z,101267.63
2023-04-18T03:21:05.276Z,101264.90
2023-04-18T03:23:32.915Z,101267.14
2023-04-18T03:26:01.005Z,101265.40
2023-04-18T03:28:28.914Z,101263.98
2023-04-18T03:30:56.610Z,101266.36
2023-04-18T03:33:24.599Z,101268.07
2023-04-18T03:35:52.315Z,101271.11
2023-04-18T03:38:20.128Z,101271.27
2023-04-18T03:40:47.873Z,101269.22
2023-04-18T03:43:15.538Z,101269.58
2023-04-18T03:45:44.398Z,101272.96
2023-04-18T03:48:12.800Z,101282.34
2023-04-18T03:50:40.689Z,101280.84
2023-04-18T03:53:08.448Z,101283.73
2023-04-18T03:55:36.218Z,101285.42
2023-04-18T03:58:03.889Z,101285.42
2023-04-18T04:00:31.747Z,101287.98
2023-04-18T04:02:59.848Z,101289.02
2023-04-18T04:05:28.371Z,101289.20
2023-04-18T04:07:56.586Z,101289.84
2023-04-18T04:10:24.445Z,101287.46
2023-04-18T04:12:52.184Z,101289.35
2023-04-18T04:15:19.784Z,101291.94
2023-04-18T04:17:47.496Z,101291.98
2023-04-18T04:20:15.701Z,101295.42
2023-04-18T04:22:43.372Z,101295.77
2023-04-18T04:25:13.833Z,101296.80
2023-04-18T04:27:42.768Z,101295.98
2023-04-18T04:30:13.187Z,101292.76
2023-04-18T04:32:41.230Z,101294.15
2023-04-18T04:35:09.550Z,101297.45
2023-04-18T04:37:37.233Z,101293.73
2023-04-18T04:40:06.248Z,101293.73
2023-04-18T04:42:33.949Z,101294.44
2023-04-18T04:45:02.882Z,101300.23
2023-04-18T04:47:30.691Z,101303.52
2023-04-18T04:49:58.726Z,101306.10
2023-04-18T04:52:26.464Z,101306.48
2023-04-18T04:54:54.093Z,101305.83
2023-04-18T04:57:21.770Z,101306.91
2023-04-18T04:59:49.429Z,101311.85
2023-04-18T05:02:17.134Z,101312.73
2023-04-18T05:04:44.904Z,101315.15
2023-04-18T05:07:12.621Z,101317.20
2023-04-18T05:09:40.417Z,101313.80
2023-04-18T05:12:08.451Z,101313.62
2023-04-18T05:14:36.327Z,101312.80
2023-04-18T05:17:04.379Z,101313.17
2023-04-18T05:19:32.048Z,101314.42
2023-04-18T05:21:59.709Z,101317.20
2023-04-18T05:24:27.384Z,101320.98
2023-04-18T05:26:55.996Z,101321.50
2023-04-18T05:29:24.054Z,101324.80
2023-04-18T05:31:51.984Z,101325.02
2023-04-18T05:34:19.971Z,101321.70
2023-04-18T05:36:48.010Z,101323.14
2023-04-18T05:39:16.089Z,101319.33
2023-04-18T05:41:43.761Z,101320.26
2023-04-18T05:44:11.526Z,101318.31
2023-04-18T05:46:39.492Z,101320.80
2023-04-18T05:49:07.948Z,101318.72
2023-04-18T05:51:36.171Z,101317.18
2023-04-18T05:54:04.401Z,101318.67
2023-04-18T05:56:32.188Z,101322.23
2023-04-18T05:58:59.815Z,101323.04
2023-04-18T06:01:27.625Z,101321.92
2023-04-18T06:03:56.060Z,101322.92
2023-04-18T06:06:23.960Z,101322.05
2023-04-18T06:08:51.737Z,101325.41
2023-04-18T06:11:21.345Z,101322.46
2023-04-18T06:13:49.196Z,101323.96
2023-04-18T06:16:17.023Z,101323.83
2023-04-18T06:18:44.766Z,101321.90
2023-04-18T06:21:13.306Z,101320.44
2023-04-18T06:23:41.081Z,101322.61
2023-04-18T06:26:09.457Z,101319.31
2023-04-18T06:28:37.120Z,101323.88
2023-04-18T06:31:05.125Z,101329.18
2023-04-18T06:33:33.496Z,101328.35
2023-04-18T06:36:01.362Z,101324.95
2023-04-18T06:38:29.165Z,101326.34
2023-04-18T06:40:56.858Z,101330.80
2023-04-18T06:43:24.723Z,101329.88
2023-04-18T06:45:52.554Z,101330.31
2023-04-18T06:48:20.251Z,101333.92
2023-04-18T06:50:48.012Z,101331.73
2023-04-18T06:53:16.034Z,101333.84
2023-04-18T06:55:43.948Z,101333.60
2023-04-18T06:58:13.959Z,101334.73
2023-04-18T07:00:42.663Z,101334.27
2023-04-18T07:03:13.622Z,101335.68
2023-04-18T07:05:41.805Z,101338.32
2023-04-18T07:08:09.538Z,101344.52
2023-04-18T07:10:37.217Z,101345.91
2023-04-18T07:13:05.046Z,101339.10
2023-04-18T07:15:36.076Z,101337.61
2023-04-18T07:18:03.977Z,101338.88
2023-04-18T07:20:32.228Z,101335.04
2023-04-18T07:23:00.192Z,101339.75
2023-04-18T07:25:28.170Z,101337.46
2023-04-18T07:27:56.038Z,101337.52
2023-04-18T07:30:24.207Z,101335.20
2023-04-18T07:32:52.129Z,101336.14
2023-04-18T07:35:19.860Z,101336.21
2023-04-18T07:37:47.800Z,101335.90
2023-04-18T07:40:16.695Z,101339.17
2023-04-18T07:42:44.656Z,101339.89
2023-04-18T07:45:12.423Z,101343.69
2023-04-18T07:47:40.225Z,101344.92
2023-04-18T07:50:08.778Z,101349.02
2023-04-18T07:52:38.202Z,101350.58
2023-04-18T07:55:07.701Z,101349.92
2023-04-18T07:57:35.446Z,101353.02
2023-04-18T08:00:04.992Z,101353.36
2023-04-18T08:02:32.934Z,101352.88
2023-04-18T08:05:01.015Z,101349.13
2023-04-18T08:07:28.949Z,101350.02
2023-04-18T08:09:56.683Z,101352.27
2023-04-18T08:12:24.472Z,101352.36
2023-04-18T08:14:52.483Z,101353.46
2023-04-18T08:17:20.762Z,101356.58
2023-04-18T08:19:48.752Z,101359.81
2023-04-18T08:22:16.553Z,101359.66
2023-04-18T08:25:01.000Z,101361.09
2023-04-18T08:27:32.479Z,101362.55
2023-04-18T08:30:00.785Z,101362.48
2023-04-18T08:32:28.671Z,101362.02
2023-04-18T08:34:56.453Z,101361.95
2023-04-18T08:37:24.239Z,101362.86
2023-04-18T08:39:51.988Z,101364.43
2023-04-18T08:42:19.867Z,101363.79
2023-04-18T08:44:47.617Z,101364.33
2023-04-18T08:47:16.514Z,101360.27
2023-04-18T08:49:45.801Z,101355.88
2023-04-18T08:52:15.121Z,101355.55
2023-04-18T08:54:45.347Z,101353.00
2023-04-18T08:57:23.787Z,101355.27
2023-04-18T08:59:53.750Z,101353.42
2023-04-18T09:02:23.468Z,101353.27
2023-04-18T09:04:55.772Z,101350.04
2023-04-18T09:07:30.724Z,101349.17
2023-04-18T09:09:58.521Z,101348.15
2023-04-18T09:12:28.294Z,101350.89
2023-04-18T09:15:09.564Z,101343.98
2023-04-18T09:17:49.344Z,101338.77
2023-04-18T09:20:41.477Z,101338.27
2023-04-18T09:23:21.764Z,101336.07
2023-04-18T09:25:51.356Z,101337.64
2023-04-18T09:28:28.024Z,101336.35
2023-04-18T09:30:58.269Z,101332.31
2023-04-18T09:33:28.588Z,101329.48
2023-04-18T09:35:57.393Z,101330.55
2023-04-18T09:38:41.346Z,101323.05
2023-04-18T09:41:15.655Z,101325.86
2023-04-18T09:43:46.920Z,101327.78
2023-04-18T09:46:17.578Z,101326.59
2023-04-18T09:48:45.961Z,101324.37
2023-04-18T09:51:16.370Z,101323.86
2023-04-18T09:53:45.045Z,101325.24
2023-04-18T09:56:24.742Z,101322.50
2023-04-18T09:59:01.219Z,101318.73
2023-04-18T10:01:29.844Z,101315.64
2023-04-18T10:04:01.449Z,101313.73
2023-04-18T10:06:30.132Z,101313.34
2023-04-18T10:08:58.287Z,101310.40
2023-04-18T10:11:26.233Z,101309.18
2023-04-18T10:13:57.570Z,101309.36
2023-04-18T10:16:26.323Z,101307.64
2023-04-18T10:18:54.148Z,101302.98
2023-04-18T10:21:22.226Z,101303.17
2023-04-18T10:23:50.597Z,101300.19
2023-04-18T10:26:18.361Z,101298.08
2023-04-18T10:28:53.604Z,101298.91
2023-04-18T10:31:24.057Z,101298.71
2023-04-18T10:34:04.653Z,101300.75
2023-04-18T10:37:04.094Z,101294.73
2023-04-18T10:39:47.996Z,101290.54
2023-04-18T10:42:15.903Z,101291.31
2023-04-18T10:44:43.566Z,101284.59
2023-04-18T10:47:19.728Z,101282.89
2023-04-18T10:49:56.092Z,101281.16
2023-04-18T10:52:23.763Z,101281.19
2023-04-18T10:54:57.700Z,101284.14
2023-04-18T10:57:47.452Z,101287.96
2023-04-18T11:00:20.633Z,101286.83
2023-04-18T11:02:55.904Z,101288.08
2023-04-18T11:05:28.943Z,101287.98
2023-04-18T11:07:56.641Z,101282.01
2023-04-18T11:10:26.822Z,101279.11
2023-04-18T11:12:55.606Z,101279.27
2023-04-18T11:15:25.541Z,101276.50
2023-04-18T11:18:04.241Z,101278.71
2023-04-18T11:20:39.818Z,101275.59
2023-04-18T11:23:23.899Z,101275.72
2023-04-18T11:25:54.283Z,101269.19
2023-04-18T11:28:25.095Z,101274.32
2023-04-18T11:30:58.290Z,101268.79
2023-04-18T11:33:29.381Z,101271.66
2023-04-18T11:36:01.105Z,101268.56
2023-04-18T11:38:34.695Z,101266.66
2023-04-18T11:41:03.008Z,101262.63
2023-04-18T11:43:30.843Z,101255.38
2023-04-18T11:45:59.707Z,101249.14
2023-04-18T11:48:38.794Z,101251.03
2023-04-18T11:51:07.678Z,101249.70
2023-04-18T11:53:36.926Z,101248.40
2023-04-18T11:56:05.777Z,101250.02
2023-04-18T11:58:34.644Z,101242.12
2023-04-18T12:01:18.318Z,101241.28
2023-04-18T12:04:02.737Z,101240.67
2023-04-18T12:07:01.006Z,101235.67
2023-04-18T12:09:29.079Z,101232.40
2023-04-18T12:12:03.043Z,101234.44
2023-04-18T12:14:31.347Z,101235.46
2023-04-18T12:16:59.208Z,101233.61
2023-04-18T12:19:28.364Z,101229.98
2023-04-18T12:22:01.290Z,101233.27
2023-04-18T12:24:29.358Z,101226.52
2023-04-18T12:26:58.111Z,101224.67
2023-04-18T12:29:29.201Z,101224.71
2023-04-18T12:31:57.110Z,101219.54
2023-04-18T12:34:25.064Z,101219.63
2023-04-18T12:36:53.932Z,101218.32
2023-04-18T12:39:21.670Z,101221.46
2023-04-18T12:41:49.978Z,101219.09
2023-04-18T12:44:17.881Z,101218.96
2023-04-18T12:46:45.638Z,101216.73
2023-04-18T12:49:13.391Z,101211.19
2023-04-18T12:51:41.196Z,101213.42
2023-04-18T12:54:09.428Z,101209.94
2023-04-18T12:56:37.110Z,101207.00
2023-04-18T12:59:04.971Z,101207.71
2023-04-18T13:01:32.730Z,101206.52
2023-04-18T13:04:11.672Z,101206.92
2023-04-18T13:06:58.191Z,101207.31
2023-04-18T13:09:27.080Z,101203.15
2023-04-18T13:11:54.762Z,101204.82
2023-04-18T13:14:22.469Z,101204.29
2023-04-18T13:16:50.777Z,101202.14
2023-04-18T13:19:18.628Z,101201.65
2023-04-18T13:21:48.371Z,101195.25
2023-04-18T13:24:17.246Z,101192.90
2023-04-18T13:26:44.969Z,101190.22
2023-04-18T13:29:13.076Z,101188.80
2023-04-18T13:31:42.670Z,101183.48
2023-04-18T13:34:10.511Z,101184.99
2023-04-18T13:36:38.829Z,101189.41
2023-04-18T13:39:06.953Z,101182.19
2023-04-18T13:41:44.080Z,101185.80
2023-04-18T13:44:11.744Z,101183.81
2023-04-18T13:46:39.505Z,101182.23
2023-04-18T13:49:07.182Z,101183.27
2023-04-18T13:51:34.927Z,101182.80
2023-04-18T13:54:02.844Z,101182.86
2023-04-18T13:56:30.870Z,101180.33
2023-04-18T13:58:59.610Z,101175.52
2023-04-18T14:01:28.008Z,101177.60
2023-04-18T14:03:55.955Z,101174.88
2023-04-18T14:06:23.997Z,101174.17
2023-04-18T14:08:51.930Z,101172.41
2023-04-18T14:11:20.614Z,101168.28
2023-04-18T14:13:48.437Z,101169.50
2023-04-18T14:19:02.022Z,101164.78
2023-04-18T14:21:29.996Z,101162.59
2023-04-18T14:23:57.762Z,101159.27
2023-04-18T14:26:25.729Z,101158.89
2023-04-18T14:28:53.597Z,101156.89
2023-04-18T14:31:21.918Z,101156.12
2023-04-18T14:33:49.773Z,101152.52
2023-04-18T14:36:17.501Z,101149.58
2023-04-18T14:38:49.299Z,101152.97
2023-04-18T14:41:17.329Z,101152.70
2023-04-18T14:43:45.104Z,101151.65
2023-04-18T14:46:14.486Z,101151.80
2023-04-18T14:48:44.600Z,101154.13
2023-04-18T14:51:12.575Z,101153.52
2023-04-18T14:53:40.251Z,101150.45
2023-04-18T14:56:07.962Z,101146.92
2023-04-18T14:58:38.486Z,101143.67
2023-04-18T15:01:06.401Z,101143.22
2023-04-18T15:03:34.710Z,101142.92
2023-04-18T15:06:03.166Z,101143.45
2023-04-18T15:08:32.914Z,101138.20
2023-04-18T15:11:01.264Z,101139.33
2023-04-18T15:13:29.150Z,101137.46
2023-04-18T15:15:57.340Z,101137.13
2023-04-18T15:18:25.284Z,101134.73
2023-04-18T15:20:53.906Z,101135.27
2023-04-18T15:23:21.655Z,101129.83
2023-04-18T15:25:52.147Z,101130.38
2023-04-18T15:28:19.867Z,101128.50
2023-04-18T15:30:47.578Z,101129.23
2023-04-18T15:33:16.060Z,101131.50
2023-04-18T15:35:43.728Z,101132.39
2023-04-18T15:38:11.994Z,101134.99
2023-04-18T15:40:39.767Z,101133.48
2023-04-18T15:43:07.631Z,101132.88
2023-04-18T15:45:35.825Z,101133.98
2023-04-18T15:48:03.681Z,101136.28
2023-04-18T15:50:33.427Z,101135.83
2023-04-18T15:53:02.328Z,101133.81
2023-04-18T15:55:29.983Z,101133.34
2023-04-18T15:57:57.648Z,101133.55
2023-04-18T16:00:25.680Z,101133.08
2023-04-18T16:02:53.546Z,101133.45
2023-04-18T16:05:21.741Z,101133.98
2023-04-18T16:07:49.878Z,101131.27
2023-04-18T16:10:18.066Z,101131.12
2023-04-18T16:12:45.887Z,101129.45
2023-04-18T16:15:13.673Z,101128.61
2023-04-18T16:17:41.408Z,101129.14
2023-04-18T16:20:09.487Z,101127.95
2023-04-18T16:22:37.787Z,101124.88
2023-04-18T16:25:06.177Z,101125.22
2023-04-18T16:27:33.971Z,101124.70
2023-04-18T16:30:02.793Z,101124.39
2023-04-18T16:32:30.612Z,101123.04
2023-04-18T16:34:58.353Z,101119.44
2023-04-18T16:37:26.071Z,101121.54
2023-04-18T16:39:53.764Z,101118.98
2023-04-18T16:42:21.498Z,101117.29
2023-04-18T16:44:49.155Z,101114.05
2023-04-18T16:47:16.792Z,101115.96
2023-04-18T16:49:46.767Z,101115.46
2023-04-18T16:52:14.734Z,101111.70
2023-04-18T16:54:42.375Z,101115.66
2023-04-18T16:57:10.488Z,101114.47
2023-04-18T16:59:38.147Z,101112.25
2023-04-18T17:02:07.301Z,101110.39
2023-04-18T17:04:35.324Z,101110.92
2023-04-18T17:07:03.095Z,101109.75
2023-04-18T17:09:31.067Z,101108.89
2023-04-18T17:11:59.065Z,101113.53
2023-04-18T17:14:26.890Z,101111.48
2023-04-18T17:16:54.644Z,101112.52
2023-04-18T17:19:23.373Z,101112.38
2023-04-18T17:21:51.172Z,101109.64
2023-04-18T17:24:18.979Z,101111.38
2023-04-18T17:26:46.828Z,101108.80
2023-04-18T17:29:14.733Z,101109.84
2023-04-18T17:31:42.603Z,101105.57
2023-04-18T17:34:10.537Z,101105.42
2023-04-18T17:36:38.339Z,101106.61
2023-04-18T17:39:06.729Z,101104.25
2023-04-18T17:41:39.341Z,101103.23
2023-04-18T17:44:08.388Z,101100.65
2023-04-18T17:46:36.878Z,101101.52
2023-04-18T17:49:04.955Z,101101.34
2023-04-18T17:51:32.946Z,101104.08
2023-04-18T17:54:00.688Z,101100.64
2023-04-18T17:56:30.525Z,101104.92
2023-04-18T17:58:58.499Z,101105.44
2023-04-18T18:01:28.810Z,101103.90
2023-04-18T18:03:57.077Z,101106.65
2023-04-18T18:06:24.851Z,101109.91
2023-04-18T18:08:52.726Z,101109.90
2023-04-18T18:11:21.463Z,101108.71
2023-04-18T18:13:51.720Z,101109.73
2023-04-18T18:16:20.506Z,101109.22
2023-04-18T18:18:49.510Z,101105.64
2023-04-18T18:21:17.983Z,101102.89
2023-04-18T18:23:46.168Z,101103.23
2023-04-18T18:26:13.810Z,101102.20
2023-04-18T18:28:41.452Z,101100.48
2023-04-18T18:31:09.198Z,101099.97
2023-04-18T18:33:36.996Z,101098.27
2023-04-18T18:36:05.525Z,101097.58
2023-04-18T18:38:33.290Z,101093.98
2023-04-18T18:41:03.662Z,101093.29
2023-04-18T18:43:32.325Z,101093.10
2023-04-18T18:46:00.412Z,101093.80
2023-04-18T18:48:28.354Z,101094.82
2023-04-18T18:50:57.308Z,101092.41
2023-04-18T18:53:25.010Z,101091.23
2023-04-18T18:55:52.711Z,101087.80
2023-04-18T18:58:20.771Z,101087.10
2023-04-18T19:00:48.593Z,101084.70
2023-04-18T19:03:19.195Z,101080.92
2023-04-18T19:05:47.741Z,101080.41
2023-04-18T19:08:15.643Z,101080.06
2023-04-18T19:10:43.422Z,101077.50
2023-04-18T19:13:11.390Z,101080.40
2023-04-18T19:15:39.152Z,101075.95
2023-04-18T19:18:07.008Z,101073.90
2023-04-18T19:20:35.079Z,101072.52
2023-04-18T19:23:02.756Z,101068.94
2023-04-18T19:25:30.425Z,101066.54
2023-04-18T19:27:58.166Z,101066.86
2023-04-18T19:30:25.803Z,101063.61
2023-04-18T19:32:53.613Z,101065.49
2023-04-18T19:35:21.763Z,101063.95
2023-04-18T19:37:49.632Z,101062.58
2023-04-18T19:40:17.700Z,101064.62
2023-04-18T19:42:46.317Z,101063.41
2023-04-18T19:45:15.300Z,101063.91
2023-04-18T19:47:44.377Z,101058.77
2023-04-18T19:50:12.220Z,101059.96
2023-04-18T19:52:40.586Z,101061.69
2023-04-18T19:55:09.415Z,101055.02
2023-04-18T19:57:41.582Z,101057.22
2023-04-18T20:00:11.597Z,101053.63
2023-04-18T20:02:42.922Z,101054.63
2023-04-18T20:05:11.616Z,101054.77
2023-04-18T20:07:39.819Z,101053.04
2023-04-18T20:10:09.077Z,101046.36
2023-04-18T20:12:37.055Z,101047.55
2023-04-18T20:15:05.848Z,101045.66
2023-04-18T20:17:34.694Z,101048.88
2023-04-18T20:20:02.889Z,101044.10
2023-04-18T20:22:32.543Z,101043.58
2023-04-18T20:25:01.595Z,101036.05
2023-04-18T20:27:29.367Z,101038.77
2023-04-18T20:29:57.517Z,101037.39
2023-04-18T20:32:26.851Z,101034.13
2023-04-18T20:34:54.743Z,101033.45
2023-04-18T20:37:22.568Z,101032.92
2023-04-18T20:39:50.446Z,101033.08
2023-04-18T20:42:18.709Z,101030.86
2023-04-18T20:44:47.006Z,101031.88
2023-04-18T20:47:15.924Z,101030.00
2023-04-18T20:49:43.706Z,101022.46
2023-04-18T20:52:11.909Z,101019.04
2023-04-18T20:54:39.890Z,101015.45
2023-04-18T20:57:08.359Z,101014.25
2023-04-18T20:59:36.148Z,101011.16
2023-04-18T21:02:03.917Z,101008.93
2023-04-18T21:04:31.896Z,101005.84
2023-04-18T21:06:59.884Z,101002.41
2023-04-18T21:09:27.594Z,101002.06
2023-04-18T21:11:55.240Z,101000.69
2023-04-18T21:14:22.905Z,101000.00
2023-04-18T21:16:50.540Z,100996.56
2023-04-18T21:19:18.341Z,100995.03
2023-04-18T21:21:45.968Z,100993.14
2023-04-18T21:24:13.760Z,100990.04
2023-04-18T21:26:41.822Z,100989.99
2023-04-18T21:29:10.178Z,100987.59
2023-04-18T21:31:37.873Z,100981.79
2023-04-18T21:34:05.952Z,100981.08
2023-04-18T21:36:33.642Z,100982.25
2023-04-18T21:39:01.447Z,100981.54
2023-04-18T21:41:29.143Z,100978.09
2023-04-18T21:43:56.953Z,100977.23
2023-04-18T21:46:25.050Z,100972.09
2023-04-18T21:48:52.934Z,100973.77
2023-04-18T21:51:21.288Z,100974.93
2023-04-18T21:53:48.968Z,100970.46
2023-04-18T21:56:17.246Z,100971.09
2023-04-18T21:58:45.018Z,100966.11
2023-04-18T22:01:12.869Z,100966.27
2023-04-18T22:03:40.967Z,100966.05
2023-04-18T22:06:08.955Z,100961.77
2023-04-18T22:08:36.664Z,100960.02
2023-04-18T22:11:05.008Z,100961.17
2023-04-18T22:13:35.776Z,100958.94
2023-04-18T22:16:04.250Z,100955.50
2023-04-18T22:18:37.567Z,100953.20
2023-04-18T22:21:06.174Z,100950.45
2023-04-18T22:23:33.910Z,100945.31
2023-04-18T22:26:01.661Z,100943.60
2023-04-18T22:28:29.415Z,100944.44
2023-04-18T22:30:57.209Z,100940.66
2023-04-18T22:33:25.494Z,100935.16
2023-04-18T22:35:53.324Z,100934.45
2023-04-18T22:38:21.183Z,100930.67
2023-04-18T22:40:48.860Z,100926.91
2023-04-18T22:43:22.855Z,100924.02
2023-04-18T22:45:51.618Z,100922.80
2023-04-18T22:48:20.464Z,100920.41
2023-04-18T22:50:50.032Z,100918.70
2023-04-18T22:53:17.904Z,100915.63
2023-04-18T22:55:46.191Z,100912.05
2023-04-18T22:58:14.285Z,100913.06
2023-04-18T23:00:42.275Z,100909.48
2023-04-18T23:03:10.254Z,100905.20
2023-04-18T23:05:38.164Z,100901.45
2023-04-18T23:08:07.249Z,100897.84
2023-04-18T23:10:35.057Z,100896.79
2023-04-18T23:13:02.804Z,100897.64
2023-04-18T23:15:30.606Z,100893.73
2023-04-18T23:17:58.429Z,100889.59
2023-04-18T23:20:26.192Z,100880.52
2023-04-18T23:22:55.511Z,100880.66
2023-04-18T23:25:23.277Z,100876.00
2023-04-18T23:27:50.935Z,100872.54
2023-04-18T23:30:18.581Z,100869.80
2023-04-18T23:32:46.389Z,100866.20
2023-04-18T23:35:14.122Z,100864.80
2023-04-18T23:37:42.376Z,100860.52
2023-04-18T23:40:10.182Z,100859.77
2023-04-18T23:42:38.311Z,100860.23
2023-04-18T23:45:06.899Z,100863.40
2023-04-18T23:47:34.807Z,100870.78
2023-04-18T23:50:02.655Z,100872.30
2023-04-18T23:52:30.382Z,100870.67
2023-04-18T23:55:01.324Z,100869.92
2023-04-18T23:57:29.088Z,100868.89
2023-04-18T23:59:56.745Z,100862.03
